createdAt,value
2017-07-16T00:01:06.625Z,0
2017-07-16T00:02:15.484Z,0
2017-07-16T00:03:24.341Z,0
2017-07-16T00:04:33.200Z,0
2017-07-16T00:05:42.055Z,0
2017-07-16T00:06:51.160Z,0
2017-07-16T00:08:00.016Z,0
2017-07-16T00:09:09.222Z,0
2017-07-16T00:10:18.080Z,0
2017-07-16T00:11:26.938Z,0
2017-07-16T00:12:35.943Z,0
2017-07-16T00:13:44.799Z,0
2017-07-16T00:14:53.657Z,0
2017-07-16T00:16:02.513Z,0
2017-07-16T00:17:11.370Z,0
2017-07-16T00:18:20.427Z,0
2017-07-16T00:19:29.287Z,0
2017-07-16T00:20:38.145Z,0
2017-07-16T00:21:47.339Z,0
2017-07-16T00:22:56.195Z,0
2017-07-16T00:24:05.203Z,0
2017-07-16T00:25:14.059Z,0
2017-07-16T00:26:22.915Z,0
2017-07-16T00:27:31.771Z,0
2017-07-16T00:28:40.960Z,0
2017-07-16T00:29:50.017Z,0
2017-07-16T00:30:58.875Z,0
2017-07-16T00:32:07.731Z,0
2017-07-16T00:33:16.586Z,0
2017-07-16T00:34:25.445Z,0
2017-07-16T00:35:34.357Z,0
2017-07-16T00:36:43.208Z,0
2017-07-16T00:37:52.063Z,0
2017-07-16T00:39:00.920Z,0
2017-07-16T00:40:09.775Z,0
2017-07-16T00:41:18.683Z,0
2017-07-16T00:42:27.540Z,0
2017-07-16T00:43:36.398Z,0
2017-07-16T00:44:45.254Z,0
2017-07-16T00:45:54.110Z,0
2017-07-16T00:47:03.115Z,0
2017-07-16T00:48:11.970Z,0
2017-07-16T00:49:20.828Z,0
2017-07-16T00:50:29.685Z,0
2017-07-16T00:51:38.542Z,0
2017-07-16T00:52:47.696Z,0
2017-07-16T00:53:56.551Z,0
2017-07-16T00:55:05.406Z,0
2017-07-16T00:56:14.260Z,0
2017-07-16T00:57:23.117Z,0
2017-07-16T00:58:32.131Z,0
2017-07-16T00:59:40.980Z,0
2017-07-16T01:00:49.835Z,0
2017-07-16T01:01:58.691Z,0
2017-07-16T01:03:07.549Z,0
2017-07-16T01:04:16.457Z,0
2017-07-16T01:05:25.313Z,0
2017-07-16T01:06:34.169Z,0
2017-07-16T01:07:43.028Z,0
2017-07-16T01:08:51.882Z,0
2017-07-16T01:10:00.785Z,0
2017-07-16T01:11:09.642Z,0
2017-07-16T01:12:18.499Z,0
2017-07-16T01:13:27.356Z,0
2017-07-16T01:14:36.213Z,0
2017-07-16T01:15:45.120Z,0
2017-07-16T01:16:53.976Z,0
2017-07-16T01:18:02.832Z,0
2017-07-16T01:19:11.690Z,0
2017-07-16T01:20:20.548Z,0
2017-07-16T01:21:29.407Z,0
2017-07-16T01:22:38.262Z,0
2017-07-16T01:23:47.118Z,0
2017-07-16T01:24:56.002Z,0
2017-07-16T01:26:04.830Z,0
2017-07-16T01:27:13.689Z,0
2017-07-16T01:28:22.545Z,0
2017-07-16T01:29:31.402Z,0
2017-07-16T01:30:40.258Z,0
2017-07-16T01:31:49.115Z,0
2017-07-16T01:32:57.974Z,0
2017-07-16T01:34:06.831Z,0
2017-07-16T01:35:15.688Z,0
2017-07-16T01:36:24.544Z,0
2017-07-16T01:37:33.401Z,0
2017-07-16T01:38:42.456Z,0
2017-07-16T01:39:51.312Z,0
2017-07-16T01:41:00.171Z,0
2017-07-16T01:42:09.359Z,0
2017-07-16T01:43:18.216Z,0
2017-07-16T01:44:27.173Z,0
2017-07-16T01:45:36.028Z,0
2017-07-16T01:46:44.884Z,0
2017-07-16T01:47:53.741Z,0
2017-07-16T01:49:02.598Z,0
2017-07-16T01:50:11.605Z,0
2017-07-16T01:51:20.462Z,0
2017-07-16T01:52:29.321Z,0
2017-07-16T01:53:38.177Z,0
2017-07-16T01:54:47.033Z,0
2017-07-16T01:55:55.992Z,0
2017-07-16T01:57:04.851Z,0
2017-07-16T01:58:13.708Z,0
2017-07-16T01:59:22.564Z,0
2017-07-16T02:00:31.421Z,0
2017-07-16T02:01:40.277Z,0
2017-07-16T02:02:49.132Z,0
2017-07-16T02:03:57.988Z,0
2017-07-16T02:05:06.846Z,0
2017-07-16T02:06:15.701Z,0
2017-07-16T02:07:24.707Z,0
2017-07-16T02:08:33.565Z,0
2017-07-16T02:09:42.421Z,0
2017-07-16T02:10:51.276Z,0
2017-07-16T02:12:00.130Z,0
2017-07-16T02:13:09.137Z,0
2017-07-16T02:14:17.994Z,0
2017-07-16T02:15:26.855Z,0
2017-07-16T02:16:35.705Z,0
2017-07-16T02:17:44.558Z,0
2017-07-16T02:18:53.565Z,0
2017-07-16T02:20:02.423Z,0
2017-07-16T02:21:11.279Z,0
2017-07-16T02:22:20.136Z,0
2017-07-16T02:23:28.992Z,0
2017-07-16T02:24:37.999Z,0
2017-07-16T02:25:46.854Z,0
2017-07-16T02:26:55.709Z,0
2017-07-16T02:28:04.567Z,0
2017-07-16T02:29:13.422Z,0
2017-07-16T02:30:22.430Z,0
2017-07-16T02:31:31.285Z,0
2017-07-16T02:32:40.142Z,0
2017-07-16T02:33:49.000Z,0
2017-07-16T02:34:57.858Z,0
2017-07-16T02:36:06.814Z,0
2017-07-16T02:37:15.671Z,0
2017-07-16T02:38:24.528Z,0
2017-07-16T02:39:33.382Z,0
2017-07-16T02:40:42.255Z,0
2017-07-16T02:41:51.245Z,0
2017-07-16T02:43:00.102Z,0
2017-07-16T02:44:08.957Z,0
2017-07-16T02:45:17.813Z,0
2017-07-16T02:46:26.670Z,0
2017-07-16T02:47:35.577Z,0
2017-07-16T02:48:44.433Z,0
2017-07-16T02:49:53.289Z,0
2017-07-16T02:51:02.143Z,0
2017-07-16T02:52:11.000Z,0
2017-07-16T02:53:20.157Z,0
2017-07-16T02:54:29.017Z,0
2017-07-16T02:55:37.873Z,0
2017-07-16T02:56:46.728Z,0
2017-07-16T02:57:55.583Z,0
2017-07-16T02:59:04.490Z,0
2017-07-16T03:00:13.345Z,0
2017-07-16T03:01:22.201Z,0
2017-07-16T03:02:31.058Z,0
2017-07-16T03:03:39.917Z,0
2017-07-16T03:04:49.260Z,0
2017-07-16T03:05:58.116Z,0
2017-07-16T03:07:06.974Z,0
2017-07-16T03:08:15.832Z,0
2017-07-16T03:09:24.688Z,0
2017-07-16T03:10:33.794Z,0
2017-07-16T03:11:42.652Z,0
2017-07-16T03:12:51.505Z,0
2017-07-16T03:14:00.362Z,0
2017-07-16T03:15:09.219Z,0
2017-07-16T03:16:18.123Z,0
2017-07-16T03:17:26.979Z,0
2017-07-16T03:18:35.836Z,5
2017-07-16T03:19:44.689Z,5
2017-07-16T03:20:53.545Z,5
2017-07-16T03:22:02.401Z,5
2017-07-16T03:23:11.256Z,5
2017-07-16T03:24:20.114Z,5
2017-07-16T03:25:28.970Z,5
2017-07-16T03:26:37.826Z,5
2017-07-16T03:27:46.730Z,5
2017-07-16T03:28:55.585Z,5
2017-07-16T03:30:04.443Z,5
2017-07-16T03:31:13.298Z,5
2017-07-16T03:32:22.154Z,5
2017-07-16T03:33:31.063Z,10
2017-07-16T03:34:39.917Z,10
2017-07-16T03:35:48.774Z,10
2017-07-16T03:36:57.632Z,10
2017-07-16T03:38:06.487Z,10
2017-07-16T03:39:15.393Z,10
2017-07-16T03:40:24.249Z,10
2017-07-16T03:41:33.104Z,10
2017-07-16T03:42:41.960Z,15
2017-07-16T03:43:50.818Z,15
2017-07-16T03:44:59.672Z,15
2017-07-16T03:46:08.526Z,15
2017-07-16T03:47:17.418Z,15
2017-07-16T03:48:26.240Z,15
2017-07-16T03:49:35.099Z,15
2017-07-16T03:50:44.254Z,20
2017-07-16T03:51:53.111Z,20
2017-07-16T03:53:01.967Z,20
2017-07-16T03:54:10.823Z,25
2017-07-16T03:55:19.681Z,25
2017-07-16T03:56:28.686Z,25
2017-07-16T03:57:37.543Z,25
2017-07-16T03:58:46.397Z,20
2017-07-16T03:59:55.255Z,20
2017-07-16T04:01:04.109Z,20
2017-07-16T04:02:13.114Z,25
2017-07-16T04:03:21.969Z,25
2017-07-16T04:04:30.828Z,25
2017-07-16T04:05:39.684Z,30
2017-07-16T04:06:48.542Z,30
2017-07-16T04:07:57.547Z,30
2017-07-16T04:09:06.730Z,30
2017-07-16T04:10:15.586Z,30
2017-07-16T04:11:24.441Z,30
2017-07-16T04:12:33.299Z,30
2017-07-16T04:13:42.304Z,35
2017-07-16T04:14:51.162Z,35
2017-07-16T04:16:00.017Z,35
2017-07-16T04:17:08.874Z,40
2017-07-16T04:18:17.731Z,40
2017-07-16T04:19:26.638Z,45
2017-07-16T04:20:35.495Z,45
2017-07-16T04:21:44.351Z,50
2017-07-16T04:22:53.205Z,50
2017-07-16T04:24:02.061Z,55
2017-07-16T04:25:11.066Z,55
2017-07-16T04:26:19.921Z,55
2017-07-16T04:27:28.778Z,55
2017-07-16T04:28:37.635Z,55
2017-07-16T04:29:46.489Z,60
2017-07-16T04:30:55.395Z,60
2017-07-16T04:32:04.254Z,60
2017-07-16T04:33:13.110Z,60
2017-07-16T04:34:21.968Z,60
2017-07-16T04:35:30.826Z,60
2017-07-16T04:36:40.015Z,60
2017-07-16T04:37:48.872Z,60
2017-07-16T04:38:57.730Z,55
2017-07-16T04:40:06.584Z,55
2017-07-16T04:41:15.441Z,55
2017-07-16T04:42:24.450Z,60
2017-07-16T04:43:33.305Z,60
2017-07-16T04:44:42.163Z,60
2017-07-16T04:45:51.019Z,60
2017-07-16T04:46:59.879Z,60
2017-07-16T04:48:08.878Z,60
2017-07-16T04:49:17.740Z,60
2017-07-16T04:50:26.592Z,60
2017-07-16T04:51:35.447Z,65
2017-07-16T04:52:44.302Z,65
2017-07-16T04:53:53.458Z,70
2017-07-16T04:55:02.314Z,70
2017-07-16T04:56:11.170Z,70
2017-07-16T04:57:20.027Z,70
2017-07-16T04:58:28.884Z,75
2017-07-16T04:59:37.891Z,75
2017-07-16T05:00:46.749Z,75
2017-07-16T05:01:55.606Z,80
2017-07-16T05:03:04.464Z,80
2017-07-16T05:04:13.319Z,85
2017-07-16T05:05:22.326Z,85
2017-07-16T05:06:31.183Z,85
2017-07-16T05:07:40.041Z,85
2017-07-16T05:08:48.898Z,85
2017-07-16T05:09:57.756Z,85
2017-07-16T05:11:06.662Z,85
2017-07-16T05:12:15.519Z,90
2017-07-16T05:13:24.374Z,95
2017-07-16T05:14:33.229Z,95
2017-07-16T05:15:42.083Z,95
2017-07-16T05:16:51.041Z,95
2017-07-16T05:17:59.896Z,90
2017-07-16T05:19:08.755Z,95
2017-07-16T05:20:17.610Z,95
2017-07-16T05:21:26.467Z,100
2017-07-16T05:22:35.370Z,100
2017-07-16T05:23:44.226Z,100
2017-07-16T05:24:53.084Z,95
2017-07-16T05:26:01.942Z,100
2017-07-16T05:27:10.799Z,100
2017-07-16T05:28:19.709Z,95
2017-07-16T05:29:28.566Z,90
2017-07-16T05:30:37.422Z,85
2017-07-16T05:31:46.276Z,85
2017-07-16T05:32:55.137Z,80
2017-07-16T05:34:04.293Z,80
2017-07-16T05:35:13.152Z,80
2017-07-16T05:36:22.006Z,80
2017-07-16T05:37:30.863Z,80
2017-07-16T05:38:39.721Z,80
2017-07-16T05:39:48.675Z,85
2017-07-16T05:40:57.530Z,85
2017-07-16T05:42:06.386Z,85
2017-07-16T05:43:15.245Z,90
2017-07-16T05:44:24.103Z,95
2017-07-16T05:45:33.059Z,100
2017-07-16T05:46:41.914Z,95
2017-07-16T05:47:50.769Z,100
2017-07-16T05:48:59.627Z,100
2017-07-16T05:50:08.483Z,100
2017-07-16T05:51:17.487Z,95
2017-07-16T05:52:26.342Z,90
2017-07-16T05:53:35.198Z,95
2017-07-16T05:54:44.054Z,105
2017-07-16T05:55:52.909Z,105
2017-07-16T05:57:01.765Z,100
2017-07-16T05:58:10.622Z,95
2017-07-16T05:59:19.478Z,95
2017-07-16T06:00:28.336Z,95
2017-07-16T06:01:37.193Z,90
2017-07-16T06:02:46.048Z,90
2017-07-16T06:03:54.906Z,85
2017-07-16T06:05:03.761Z,85
2017-07-16T06:06:12.617Z,90
2017-07-16T06:07:21.474Z,85
2017-07-16T06:08:30.631Z,85
2017-07-16T06:09:39.485Z,85
2017-07-16T06:10:48.342Z,95
2017-07-16T06:11:57.199Z,95
2017-07-16T06:13:06.057Z,95
2017-07-16T06:14:14.914Z,95
2017-07-16T06:15:23.771Z,95
2017-07-16T06:16:32.628Z,95
2017-07-16T06:17:41.487Z,95
2017-07-16T06:18:50.340Z,90
2017-07-16T06:19:59.629Z,90
2017-07-16T06:21:08.484Z,90
2017-07-16T06:22:17.341Z,95
2017-07-16T06:23:26.197Z,95
2017-07-16T06:24:35.055Z,95
2017-07-16T06:25:43.961Z,95
2017-07-16T06:26:52.819Z,100
2017-07-16T06:28:01.679Z,105
2017-07-16T06:29:10.534Z,105
2017-07-16T06:30:19.389Z,110
2017-07-16T06:31:28.344Z,120
2017-07-16T06:32:37.200Z,125
2017-07-16T06:33:46.058Z,135
2017-07-16T06:34:54.914Z,145
2017-07-16T06:36:03.771Z,155
2017-07-16T06:37:12.828Z,160
2017-07-16T06:38:21.686Z,170
2017-07-16T06:39:30.544Z,175
2017-07-16T06:40:39.399Z,180
2017-07-16T06:41:48.256Z,190
2017-07-16T06:42:57.162Z,195
2017-07-16T06:44:06.018Z,195
2017-07-16T06:45:14.876Z,200
2017-07-16T06:46:23.735Z,205
2017-07-16T06:47:32.600Z,205
2017-07-16T06:48:41.556Z,210
2017-07-16T06:49:50.415Z,210
2017-07-16T06:50:59.272Z,210
2017-07-16T06:52:08.130Z,200
2017-07-16T06:53:16.988Z,190
2017-07-16T06:54:26.096Z,185
2017-07-16T06:55:34.954Z,190
2017-07-16T06:56:43.811Z,200
2017-07-16T06:57:52.666Z,205
2017-07-16T06:59:01.522Z,220
2017-07-16T07:00:10.484Z,240
2017-07-16T07:01:19.342Z,250
2017-07-16T07:02:28.206Z,260
2017-07-16T07:03:37.061Z,270
2017-07-16T07:04:45.918Z,275
2017-07-16T07:05:55.029Z,290
2017-07-16T07:07:03.880Z,295
2017-07-16T07:08:12.739Z,295
2017-07-16T07:09:21.597Z,290
2017-07-16T07:10:30.455Z,310
2017-07-16T07:11:39.312Z,325
2017-07-16T07:12:48.167Z,325
2017-07-16T07:13:57.024Z,305
2017-07-16T07:15:05.890Z,295
2017-07-16T07:16:14.742Z,290
2017-07-16T07:17:23.748Z,290
2017-07-16T07:18:32.610Z,290
2017-07-16T07:19:41.464Z,290
2017-07-16T07:20:50.320Z,275
2017-07-16T07:21:59.179Z,265
2017-07-16T07:23:08.135Z,265
2017-07-16T07:24:16.993Z,265
2017-07-16T07:25:25.850Z,280
2017-07-16T07:26:34.707Z,290
2017-07-16T07:27:43.570Z,290
2017-07-16T07:28:52.578Z,280
2017-07-16T07:30:01.435Z,270
2017-07-16T07:31:10.294Z,265
2017-07-16T07:32:19.154Z,265
2017-07-16T07:33:28.016Z,270
2017-07-16T07:34:37.355Z,275
2017-07-16T07:35:46.215Z,285
2017-07-16T07:36:55.076Z,295
2017-07-16T07:38:03.934Z,295
2017-07-16T07:39:12.790Z,295
2017-07-16T07:40:21.798Z,295
2017-07-16T07:41:30.656Z,300
2017-07-16T07:42:39.513Z,305
2017-07-16T07:43:48.373Z,315
2017-07-16T07:44:57.231Z,320
2017-07-16T07:46:06.241Z,325
2017-07-16T07:47:15.433Z,330
2017-07-16T07:48:24.289Z,325
2017-07-16T07:49:33.146Z,320
2017-07-16T07:50:42.005Z,320
2017-07-16T07:51:51.013Z,330
2017-07-16T07:52:59.870Z,355
2017-07-16T07:54:08.727Z,380
2017-07-16T07:55:17.586Z,395
2017-07-16T07:56:26.444Z,375
2017-07-16T07:57:35.553Z,335
2017-07-16T07:58:44.410Z,295
2017-07-16T07:59:53.271Z,260
2017-07-16T08:01:02.126Z,240
2017-07-16T08:02:10.984Z,235
2017-07-16T08:03:19.890Z,245
2017-07-16T08:04:28.748Z,265
2017-07-16T08:05:37.607Z,300
2017-07-16T08:06:46.465Z,320
2017-07-16T08:07:55.323Z,340
2017-07-16T08:09:04.330Z,360
2017-07-16T08:10:13.187Z,390
2017-07-16T08:11:22.045Z,415
2017-07-16T08:12:31.237Z,420
2017-07-16T08:13:40.095Z,440
2017-07-16T08:14:49.115Z,515
2017-07-16T08:15:57.964Z,545
2017-07-16T08:17:06.822Z,535
2017-07-16T08:18:15.679Z,565
2017-07-16T08:19:24.535Z,625
2017-07-16T08:20:33.443Z,625
2017-07-16T08:21:42.300Z,545
2017-07-16T08:22:51.158Z,460
2017-07-16T08:24:00.016Z,425
2017-07-16T08:25:08.874Z,415
2017-07-16T08:26:17.933Z,450
2017-07-16T08:27:26.791Z,465
2017-07-16T08:28:35.649Z,480
2017-07-16T08:29:44.508Z,465
2017-07-16T08:30:53.368Z,470
2017-07-16T08:32:02.528Z,445
2017-07-16T08:33:11.388Z,405
2017-07-16T08:34:20.247Z,375
2017-07-16T08:35:29.106Z,380
2017-07-16T08:36:37.964Z,370
2017-07-16T08:37:46.972Z,345
2017-07-16T08:38:55.832Z,310
2017-07-16T08:40:04.689Z,290
2017-07-16T08:41:13.546Z,280
2017-07-16T08:42:22.405Z,270
2017-07-16T08:43:31.414Z,290
2017-07-16T08:44:40.272Z,330
2017-07-16T08:45:49.137Z,340
2017-07-16T08:46:57.989Z,360
2017-07-16T08:48:06.846Z,355
2017-07-16T08:49:15.756Z,365
2017-07-16T08:50:24.655Z,360
2017-07-16T08:51:33.474Z,350
2017-07-16T08:52:42.331Z,380
2017-07-16T08:53:51.192Z,315
2017-07-16T08:55:00.150Z,295
2017-07-16T08:56:09.012Z,315
2017-07-16T08:57:17.871Z,340
2017-07-16T08:58:26.730Z,305
2017-07-16T08:59:35.586Z,320
2017-07-16T09:00:44.445Z,325
2017-07-16T09:01:53.313Z,285
2017-07-16T09:03:02.165Z,295
2017-07-16T09:04:11.021Z,285
2017-07-16T09:05:19.883Z,280
2017-07-16T09:06:28.940Z,240
2017-07-16T09:07:37.800Z,210
2017-07-16T09:08:46.657Z,240
2017-07-16T09:09:55.516Z,255
2017-07-16T09:11:04.374Z,255
2017-07-16T09:12:13.281Z,245
2017-07-16T09:13:22.139Z,245
2017-07-16T09:14:30.996Z,235
2017-07-16T09:15:39.855Z,220
2017-07-16T09:16:48.716Z,205
2017-07-16T09:17:57.724Z,210
2017-07-16T09:19:06.583Z,230
2017-07-16T09:20:15.443Z,245
2017-07-16T09:21:24.300Z,235
2017-07-16T09:22:33.159Z,230
2017-07-16T09:23:42.169Z,220
2017-07-16T09:24:51.025Z,225
2017-07-16T09:25:59.884Z,205
2017-07-16T09:27:08.741Z,190
2017-07-16T09:28:17.601Z,190
2017-07-16T09:29:26.559Z,185
2017-07-16T09:30:35.416Z,195
2017-07-16T09:31:44.275Z,200
2017-07-16T09:32:53.133Z,190
2017-07-16T09:34:01.994Z,195
2017-07-16T09:35:10.850Z,190
2017-07-16T09:36:19.709Z,185
2017-07-16T09:37:28.568Z,190
2017-07-16T09:38:37.424Z,215
2017-07-16T09:39:46.281Z,235
2017-07-16T09:40:55.476Z,280
2017-07-16T09:42:04.334Z,250
2017-07-16T09:43:13.190Z,250
2017-07-16T09:44:22.046Z,270
2017-07-16T09:45:30.906Z,310
2017-07-16T09:46:39.913Z,275
2017-07-16T09:47:48.777Z,275
2017-07-16T09:48:57.628Z,270
2017-07-16T09:50:06.487Z,250
2017-07-16T09:51:15.345Z,275
2017-07-16T09:52:24.253Z,260
2017-07-16T09:53:33.112Z,220
2017-07-16T09:54:41.974Z,205
2017-07-16T09:55:50.834Z,215
2017-07-16T09:56:59.697Z,255
2017-07-16T09:58:08.552Z,270
2017-07-16T09:59:17.412Z,260
2017-07-16T10:00:26.277Z,230
2017-07-16T10:01:35.138Z,235
2017-07-16T10:02:44.000Z,220
2017-07-16T10:03:53.160Z,210
2017-07-16T10:05:02.022Z,220
2017-07-16T10:06:10.882Z,245
2017-07-16T10:07:19.739Z,265
2017-07-16T10:08:28.597Z,265
2017-07-16T10:09:37.506Z,225
2017-07-16T10:10:46.366Z,210
2017-07-16T10:11:55.231Z,220
2017-07-16T10:13:04.092Z,220
2017-07-16T10:14:12.951Z,235
2017-07-16T10:15:21.964Z,250
2017-07-16T10:16:30.823Z,270
2017-07-16T10:17:39.684Z,295
2017-07-16T10:18:48.543Z,290
2017-07-16T10:19:57.403Z,285
2017-07-16T10:21:06.323Z,340
2017-07-16T10:22:15.192Z,380
2017-07-16T10:23:24.064Z,305
2017-07-16T10:24:32.935Z,285
2017-07-16T10:26:14.645Z,305
2017-07-16T10:27:23.551Z,305
2017-07-16T10:28:32.523Z,300
2017-07-16T10:29:41.530Z,275
2017-07-16T10:30:50.666Z,280
2017-07-16T10:31:59.871Z,265
2017-07-16T10:33:08.820Z,275
2017-07-16T10:34:17.840Z,280
2017-07-16T10:35:26.779Z,280
2017-07-16T10:36:36.079Z,280
2017-07-16T10:37:45.548Z,255
2017-07-16T10:38:54.475Z,220
2017-07-16T10:41:49.416Z,165
2017-07-16T10:42:58.424Z,165
2017-07-16T10:44:07.281Z,170
2017-07-16T10:45:16.139Z,180
2017-07-16T10:46:24.997Z,185
2017-07-16T10:47:33.855Z,195
2017-07-16T10:48:42.969Z,205
2017-07-16T10:49:52.247Z,230
2017-07-16T10:51:01.251Z,235
2017-07-16T10:52:10.513Z,255
2017-07-16T10:53:19.948Z,270
2017-07-16T10:54:29.325Z,285
2017-07-16T10:55:38.408Z,295
2017-07-16T10:56:47.339Z,250
2017-07-16T10:57:56.313Z,275
2017-07-16T10:59:05.182Z,225
2017-07-16T11:00:14.089Z,235
2017-07-16T11:01:22.945Z,225
2017-07-16T11:02:31.804Z,260
2017-07-16T11:03:40.663Z,240
2017-07-16T11:04:49.519Z,270
2017-07-16T11:05:58.377Z,245
2017-07-16T11:07:07.296Z,255
2017-07-16T11:08:16.239Z,255
2017-07-16T11:09:25.164Z,185
2017-07-16T11:10:34.336Z,205
2017-07-16T11:11:43.285Z,195
2017-07-16T11:12:52.274Z,200
2017-07-16T11:14:02.039Z,255
2017-07-16T11:15:11.029Z,310
2017-07-16T11:16:20.442Z,280
2017-07-16T11:17:29.422Z,330
2017-07-16T11:18:38.474Z,405
2017-07-16T11:19:47.686Z,410
2017-07-16T11:20:56.754Z,390
2017-07-16T11:22:05.709Z,390
2017-07-16T11:23:14.647Z,405
2017-07-16T11:24:23.618Z,450
2017-07-16T11:25:32.592Z,430
2017-07-16T11:26:41.882Z,365
2017-07-16T11:27:50.846Z,345
2017-07-16T11:28:59.829Z,375
2017-07-16T11:30:08.790Z,395
2017-07-16T11:31:17.865Z,400
2017-07-16T11:32:27.199Z,550
2017-07-16T11:33:36.267Z,600
2017-07-16T11:34:45.206Z,515
2017-07-16T11:35:54.407Z,625
2017-07-16T11:37:03.402Z,690
2017-07-16T11:38:12.667Z,530
2017-07-16T11:39:21.950Z,550
2017-07-16T11:40:31.004Z,440
2017-07-16T11:41:40.292Z,405
2017-07-16T11:42:49.313Z,465
2017-07-16T11:43:58.293Z,570
2017-07-16T11:45:07.433Z,520
2017-07-16T11:46:16.412Z,390
2017-07-16T11:47:25.413Z,290
2017-07-16T11:48:34.481Z,320
2017-07-16T11:49:43.712Z,340
2017-07-16T11:50:52.985Z,280
2017-07-16T11:52:01.926Z,240
2017-07-16T11:53:10.910Z,280
2017-07-16T11:54:19.955Z,210
2017-07-16T11:55:29.042Z,235
2017-07-16T11:56:38.409Z,285
2017-07-16T11:57:47.333Z,305
2017-07-16T11:58:56.318Z,305
2017-07-16T12:00:06.660Z,310
2017-07-16T12:01:15.984Z,295
2017-07-16T12:02:24.860Z,285
2017-07-16T12:03:34.177Z,290
2017-07-16T12:04:43.187Z,310
2017-07-16T12:05:52.237Z,275
2017-07-16T12:07:01.466Z,275
2017-07-16T12:08:10.538Z,255
2017-07-16T12:09:20.284Z,235
2017-07-16T12:10:29.308Z,285
2017-07-16T12:11:38.751Z,345
2017-07-16T12:12:47.727Z,340
2017-07-16T12:13:56.700Z,360
2017-07-16T12:15:05.653Z,275
2017-07-16T12:16:14.628Z,325
2017-07-16T12:17:23.780Z,315
2017-07-16T12:18:32.806Z,315
2017-07-16T12:19:41.808Z,295
2017-07-16T12:20:50.824Z,285
2017-07-16T12:21:59.737Z,325
2017-07-16T12:23:08.840Z,285
2017-07-16T12:24:17.791Z,290
2017-07-16T12:25:26.718Z,260
2017-07-16T12:26:35.653Z,255
2017-07-16T12:27:44.620Z,275
2017-07-16T12:28:53.658Z,335
2017-07-16T12:30:02.510Z,415
2017-07-16T12:31:11.417Z,360
2017-07-16T12:32:20.276Z,275
2017-07-16T12:33:29.135Z,355
2017-07-16T12:34:38.044Z,305
2017-07-16T12:35:46.903Z,295
2017-07-16T12:36:55.759Z,360
2017-07-16T12:38:04.616Z,590
2017-07-16T12:39:13.475Z,605
2017-07-16T12:40:22.536Z,480
2017-07-16T12:41:31.395Z,430
2017-07-16T12:42:40.256Z,550
2017-07-16T12:43:49.110Z,860
2017-07-16T12:44:57.967Z,955
2017-07-16T12:46:06.935Z,675
2017-07-16T12:47:15.797Z,780
2017-07-16T12:48:24.656Z,930
2017-07-16T12:49:33.518Z,445
2017-07-16T12:50:42.429Z,405
2017-07-16T12:51:51.922Z,350
2017-07-16T12:53:00.787Z,445
2017-07-16T12:54:09.649Z,355
2017-07-16T12:55:18.507Z,355
2017-07-16T12:56:27.370Z,525
2017-07-16T12:57:36.229Z,565
2017-07-16T12:58:45.088Z,390
2017-07-16T12:59:53.951Z,390
2017-07-16T13:01:02.811Z,420
2017-07-16T13:02:11.672Z,480
2017-07-16T13:03:20.581Z,605
2017-07-16T13:04:29.443Z,725
2017-07-16T13:05:38.309Z,815
2017-07-16T13:06:47.169Z,480
2017-07-16T13:07:56.026Z,485
2017-07-16T13:09:04.984Z,465
2017-07-16T13:10:13.846Z,415
2017-07-16T13:11:22.707Z,405
2017-07-16T13:12:31.570Z,425
2017-07-16T13:13:40.433Z,595
2017-07-16T13:14:49.397Z,555
2017-07-16T13:15:58.257Z,455
2017-07-16T13:17:07.117Z,435
2017-07-16T13:18:15.979Z,450
2017-07-16T13:19:24.838Z,415
2017-07-16T13:20:33.755Z,455
2017-07-16T13:21:42.617Z,505
2017-07-16T13:22:51.475Z,280
2017-07-16T13:24:00.346Z,345
2017-07-16T13:25:09.206Z,350
2017-07-16T13:26:18.553Z,375
2017-07-16T13:27:27.426Z,370
2017-07-16T13:28:36.303Z,355
2017-07-16T13:29:45.170Z,495
2017-07-16T13:30:54.030Z,470
2017-07-16T13:32:03.139Z,555
2017-07-16T13:33:11.995Z,515
2017-07-16T13:34:20.856Z,445
2017-07-16T13:35:29.715Z,410
2017-07-16T13:36:38.573Z,405
2017-07-16T13:37:47.432Z,380
2017-07-16T13:38:56.292Z,350
2017-07-16T13:40:05.155Z,385
2017-07-16T13:41:14.014Z,375
2017-07-16T13:42:22.872Z,395
2017-07-16T13:43:32.034Z,405
2017-07-16T13:44:40.906Z,465
2017-07-16T13:45:49.782Z,480
2017-07-16T13:46:58.656Z,475
2017-07-16T13:48:07.522Z,555
2017-07-16T13:49:16.692Z,675
2017-07-16T13:50:25.564Z,990
2017-07-16T13:51:34.435Z,1340
2017-07-16T13:52:43.308Z,2520
2017-07-16T13:53:52.178Z,1375
2017-07-16T13:55:01.249Z,1515
2017-07-16T13:56:10.121Z,3925
2017-07-16T13:57:18.993Z,2255
2017-07-16T13:58:27.868Z,2505
2017-07-16T13:59:36.741Z,1495
2017-07-16T14:00:45.764Z,2055
2017-07-16T14:01:54.641Z,890
2017-07-16T14:03:03.511Z,495
2017-07-16T14:04:12.386Z,450
2017-07-16T14:05:21.288Z,405
2017-07-16T14:06:30.307Z,335
2017-07-16T14:07:39.181Z,315
2017-07-16T14:08:48.051Z,325
2017-07-16T14:09:56.926Z,335
2017-07-16T14:11:05.801Z,310
2017-07-16T14:12:14.927Z,345
2017-07-16T14:13:23.799Z,395
2017-07-16T14:14:32.675Z,450
2017-07-16T14:15:41.552Z,460
2017-07-16T14:16:50.465Z,500
2017-07-16T14:17:59.640Z,430
2017-07-16T14:19:08.510Z,400
2017-07-16T14:20:17.383Z,380
2017-07-16T14:21:26.277Z,310
2017-07-16T14:22:35.149Z,260
2017-07-16T14:23:44.169Z,220
2017-07-16T14:24:53.074Z,190
2017-07-16T14:26:01.946Z,160
2017-07-16T14:27:10.812Z,130
2017-07-16T14:28:19.695Z,110
2017-07-16T14:29:28.858Z,120
2017-07-16T14:30:37.754Z,145
2017-07-16T14:31:46.928Z,140
2017-07-16T14:32:55.786Z,140
2017-07-16T14:34:04.650Z,135
2017-07-16T14:35:13.572Z,135
2017-07-16T14:36:22.432Z,160
2017-07-16T14:37:31.296Z,145
2017-07-16T14:38:40.156Z,155
2017-07-16T14:39:49.014Z,145
2017-07-16T14:40:58.028Z,145
2017-07-16T14:42:06.888Z,140
2017-07-16T14:43:15.749Z,165
2017-07-16T14:44:24.610Z,160
2017-07-16T14:45:33.801Z,160
2017-07-16T14:46:42.911Z,175
2017-07-16T14:47:51.769Z,180
2017-07-16T14:49:00.629Z,175
2017-07-16T14:50:09.488Z,180
2017-07-16T14:51:18.344Z,180
2017-07-16T14:52:27.533Z,220
2017-07-16T14:53:36.365Z,225
2017-07-16T14:54:45.223Z,305
2017-07-16T14:55:54.081Z,310
2017-07-16T14:57:02.942Z,330
2017-07-16T14:58:11.955Z,285
2017-07-16T14:59:20.810Z,170
2017-07-16T15:00:29.666Z,160
2017-07-16T15:01:38.524Z,150
2017-07-16T15:02:47.380Z,155
2017-07-16T15:03:56.390Z,155
2017-07-16T15:05:05.248Z,180
2017-07-16T15:06:14.107Z,190
2017-07-16T15:07:22.965Z,155
2017-07-16T15:08:31.823Z,135
2017-07-16T15:09:40.940Z,125
2017-07-16T15:10:49.824Z,125
2017-07-16T15:11:58.683Z,110
2017-07-16T15:13:08.766Z,105
2017-07-16T15:14:17.627Z,125
2017-07-16T15:15:26.534Z,150
2017-07-16T15:16:35.725Z,190
2017-07-16T15:17:44.726Z,160
2017-07-16T15:18:53.607Z,155
2017-07-16T15:20:02.464Z,165
2017-07-16T15:21:11.425Z,170
2017-07-16T15:22:20.283Z,145
2017-07-16T15:23:29.142Z,125
2017-07-16T15:24:38.015Z,120
2017-07-16T15:25:46.874Z,125
2017-07-16T15:26:55.884Z,140
2017-07-16T15:28:04.751Z,180
2017-07-16T15:29:13.609Z,200
2017-07-16T15:30:22.508Z,200
2017-07-16T15:31:31.376Z,245
2017-07-16T15:32:40.386Z,320
2017-07-16T15:33:49.247Z,325
2017-07-16T15:34:58.446Z,310
2017-07-16T15:36:07.302Z,365
2017-07-16T15:37:16.160Z,445
2017-07-16T15:38:25.220Z,445
2017-07-16T15:39:34.077Z,410
2017-07-16T15:40:42.937Z,340
2017-07-16T15:41:51.798Z,300
2017-07-16T15:43:00.657Z,260
2017-07-16T15:44:09.566Z,255
2017-07-16T15:45:18.423Z,260
2017-07-16T15:46:27.285Z,220
2017-07-16T15:47:36.144Z,170
2017-07-16T15:48:45.008Z,165
2017-07-16T15:49:54.017Z,205
2017-07-16T15:51:02.875Z,235
2017-07-16T15:52:11.743Z,200
2017-07-16T15:53:20.595Z,165
2017-07-16T15:54:29.456Z,190
2017-07-16T15:55:38.746Z,190
2017-07-16T15:56:47.608Z,135
2017-07-16T15:57:56.465Z,115
2017-07-16T15:59:05.322Z,120
2017-07-16T16:00:14.184Z,110
2017-07-16T16:01:23.144Z,95
2017-07-16T16:02:32.003Z,75
2017-07-16T16:03:40.910Z,85
2017-07-16T16:04:49.767Z,80
2017-07-16T16:05:58.636Z,70
2017-07-16T16:07:07.809Z,75
2017-07-16T16:08:16.682Z,85
2017-07-16T16:09:25.541Z,100
2017-07-16T16:10:34.401Z,125
2017-07-16T16:11:43.263Z,165